Time;durP1;ratioP1;P1;durP2;ratioP2;P2;SDS_P1;SDS_P2;PMS_P1;PMS_P2;Temp;Humidity;BMP_temperature;BMP_pressure;BME280_temperature;BME280_humidity;BME280_pressure;Samples;Min_cycle;Max_cycle;Signal;HPM_P1;HPM_P2
2023/06/19 00:00:12;;;;;;;1999.90;999.90;;;11.40;99.90;;;;;;5060947;28;20033;-72
2023/06/19 00:02:43;;;;;;;1999.90;999.90;;;11.90;99.90;;;;;;5062253;28;20159;-69
2023/06/19 00:05:11;;;;;;;1999.90;999.90;;;12.70;99.60;;;;;;5055836;28;20503;-69
2023/06/19 00:07:39;;;;;;;1999.90;999.90;;;13.70;97.20;;;;;;5054964;28;20025;-75
2023/06/19 00:10:07;;;;;;;1999.90;999.90;;;14.70;96.20;;;;;;5055634;28;20025;-71
2023/06/19 00:12:35;;;;;;;1999.90;999.90;;;15.40;95.30;;;;;;5060451;28;20033;-69
2023/06/19 00:15:02;;;;;;;1999.90;999.90;;;16.10;93.10;;;;;;5059496;28;20073;-72
2023/06/19 00:17:30;;;;;;;1999.90;999.90;;;16.50;92.50;;;;;;5056915;28;20033;-74
2023/06/19 00:19:57;;;;;;;1999.90;999.90;;;17.20;91.10;;;;;;5059567;28;20025;-71
2023/06/19 00:22:26;;;;;;;1999.90;999.90;;;17.40;91.60;;;;;;5061249;28;20020;-74
2023/06/19 00:24:53;;;;;;;1999.90;999.90;;;17.80;91.00;;;;;;5058718;28;20098;-74
2023/06/19 00:27:21;;;;;;;1999.90;999.90;;;18.10;89.30;;;;;;5057204;28;20028;-73
2023/06/19 00:29:48;;;;;;;1999.90;999.90;;;18.60;86.40;;;;;;5058660;28;20103;-72
2023/06/19 00:32:15;;;;;;;1999.90;999.90;;;18.80;87.10;;;;;;5052701;28;20044;-72
2023/06/19 00:34:43;;;;;;;1999.90;999.90;;;19.40;84.80;;;;;;5061658;28;20076;-70
2023/06/19 00:37:12;;;;;;;1999.90;999.90;;;19.70;85.10;;;;;;5052409;28;20427;-72
2023/06/19 00:39:41;;;;;;;1999.90;999.90;;;19.50;85.30;;;;;;5062475;28;20036;-72
2023/06/19 00:42:08;;;;;;;1999.90;999.90;;;19.50;85.10;;;;;;5056631;28;20042;-72
2023/06/19 00:44:35;;;;;;;1999.90;999.90;;;19.70;83.90;;;;;;5058633;28;20029;-72
2023/06/19 00:47:04;;;;;;;1999.90;999.90;;;20.10;83.60;;;;;;5056313;28;20471;-71
2023/06/19 00:49:32;;;;;;;1999.90;999.90;;;20.40;83.30;;;;;;5055775;28;20025;-70
2023/06/19 00:51:59;;;;;;;1999.90;999.90;;;20.70;82.20;;;;;;5062818;28;20086;-72
2023/06/19 00:54:27;;;;;;;1999.90;999.90;;;21.30;80.60;;;;;;5068249;28;20039;-71
2023/06/19 00:56:54;;;;;;;1999.90;999.90;;;21.30;80.90;;;;;;5062733;28;20032;-76
2023/06/19 00:59:22;;;;;;;1999.90;999.90;;;21.60;79.80;;;;;;5058825;28;20480;-74
2023/06/19 01:01:49;;;;;;;1999.90;999.90;;;21.80;78.70;;;;;;5044689;28;20029;-75
2023/06/19 01:04:17;;;;;;;1999.90;999.90;;;22.30;77.50;;;;;;5051562;28;20407;-72
2023/06/19 01:07:14;;;;;;;1999.90;999.90;;;22.90;77.10;;;;;;5047801;28;20048;-73
2023/06/19 01:09:51;;;;;;;1999.90;999.90;;;23.50;74.40;;;;;;5052014;28;20196;-73
2023/06/19 01:12:37;;;;;;;1999.90;999.90;;;23.80;72.20;;;;;;5050917;28;20134;-72
2023/06/19 01:15:08;;;;;;;1999.90;999.90;;;23.70;72.20;;;;;;5060451;28;20017;-72
2023/06/19 01:17:37;;;;;;;1999.90;999.90;;;23.70;72.00;;;;;;5048959;28;20036;-74
2023/06/19 01:20:10;;;;;;;1999.90;999.90;;;23.90;71.10;;;;;;5054831;28;20027;-74
2023/06/19 01:22:38;;;;;;;1999.90;999.90;;;24.20;69.70;;;;;;5052624;28;20472;-72
2023/06/19 01:25:09;;;;;;;1999.90;999.90;;;23.90;69.80;;;;;;5048936;28;20032;-77
2023/06/19 01:27:37;;;;;;;1999.90;999.90;;;23.80;68.50;;;;;;5045526;28;20531;-73
2023/06/19 01:30:05;;;;;;;1999.90;999.90;;;23.50;69.30;;;;;;5047590;28;20033;-72
2023/06/19 01:32:42;;;;;;;1999.90;999.90;;;23.40;70.60;;;;;;5049950;28;20033;-72
2023/06/19 01:35:10;;;;;;;1999.90;999.90;;;23.30;70.30;;;;;;5058006;28;20022;-72
2023/06/19 01:37:40;;;;;;;1999.90;999.90;;;23.40;70.70;;;;;;5053226;28;20357;-72
2023/06/19 01:40:10;;;;;;;1999.90;999.90;;;23.40;69.90;;;;;;5053322;28;20078;-77
2023/06/19 01:42:41;;;;;;;1999.90;999.90;;;23.10;69.30;;;;;;5051608;28;20107;-73
2023/06/19 01:45:09;;;;;;;1999.90;999.90;;;23.10;69.50;;;;;;5054659;28;20033;-74
2023/06/19 01:47:37;;;;;;;1999.90;999.90;;;23.30;68.70;;;;;;5054616;28;20032;-73
2023/06/19 01:50:07;;;;;;;1999.90;999.90;;;23.10;68.30;;;;;;5059580;28;20033;-73
2023/06/19 01:52:34;;;;;;;1999.90;999.90;;;23.00;68.20;;;;;;5054435;28;20041;-74
2023/06/19 01:55:02;;;;;;;1999.90;999.90;;;23.00;68.60;;;;;;5050839;28;20422;-78
2023/06/19 01:57:29;;;;;;;1999.90;999.90;;;23.40;68.60;;;;;;5048924;28;20509;-72
2023/06/19 01:59:57;;;;;;;1999.90;999.90;;;23.30;67.50;;;;;;5054517;28;20043;-75
2023/06/19 02:02:24;;;;;;;1999.90;999.90;;;23.20;68.70;;;;;;5057602;28;20059;-72
2023/06/19 02:04:51;;;;;;;1999.90;999.90;;;23.20;68.80;;;;;;5062244;28;20033;-74
2023/06/19 02:07:19;;;;;;;1999.90;999.90;;;23.30;68.70;;;;;;5050873;28;20027;-71
2023/06/19 02:09:46;;;;;;;1999.90;999.90;;;23.10;68.60;;;;;;5052437;28;20021;-71
2023/06/19 02:12:13;;;;;;;1999.90;999.90;;;23.00;68.60;;;;;;5043955;28;21030;-73
2023/06/19 02:14:41;;;;;;;1999.90;999.90;;;22.70;69.50;;;;;;5047881;28;20033;-72
2023/06/19 02:17:08;;;;;;;1999.90;999.90;;;22.80;70.00;;;;;;5054208;28;20025;-70
2023/06/19 02:19:36;;;;;;;1999.90;999.90;;;22.70;69.30;;;;;;5057703;28;20031;-70
2023/06/19 02:22:04;;;;;;;1999.90;999.90;;;22.30;70.00;;;;;;5055453;28;20033;-70
2023/06/19 02:24:31;;;;;;;1999.90;999.90;;;22.60;70.20;;;;;;5058940;28;20156;-71
2023/06/19 02:26:58;;;;;;;1999.90;999.90;;;22.90;69.80;;;;;;5050024;28;20043;-70
2023/06/19 02:29:26;;;;;;;1999.90;999.90;;;22.70;69.50;;;;;;5058278;28;20036;-71
2023/06/19 02:31:53;;;;;;;1999.90;999.90;;;22.80;69.90;;;;;;5052042;28;20044;-70
2023/06/19 02:34:24;;;;;;;1999.90;999.90;;;22.80;70.20;;;;;;5049324;28;20556;-71
2023/06/19 02:36:51;;;;;;;1999.90;999.90;;;22.70;70.00;;;;;;5050510;28;20029;-72
2023/06/19 02:39:18;;;;;;;1999.90;999.90;;;22.70;70.70;;;;;;5055333;28;20099;-71
2023/06/19 02:41:47;;;;;;;1999.90;999.90;;;23.10;70.50;;;;;;5048872;28;20036;-74
2023/06/19 02:44:15;;;;;;;1999.90;999.90;;;23.00;69.90;;;;;;5042609;28;20032;-69
2023/06/19 02:46:42;;;;;;;1999.90;999.90;;;23.00;70.10;;;;;;5055767;28;20036;-70
2023/06/19 02:49:10;;;;;;;1999.90;999.90;;;23.00;70.00;;;;;;5050421;28;20051;-71
2023/06/19 02:51:37;;;;;;;1999.90;999.90;;;22.60;70.10;;;;;;5045388;28;20078;-69
2023/06/19 02:54:06;;;;;;;1999.90;999.90;;;22.10;70.70;;;;;;5048826;28;20487;-69
2023/06/19 02:56:33;;;;;;;1999.90;999.90;;;22.00;71.20;;;;;;5052773;28;20025;-70
2023/06/19 02:59:01;;;;;;;1999.90;999.90;;;21.90;70.50;;;;;;5051768;28;20036;-71
2023/06/19 03:01:30;;;;;;;1999.90;999.90;;;21.50;71.30;;;;;;5049567;28;20025;-69
2023/06/19 03:03:57;;;;;;;1999.90;999.90;;;21.40;71.70;;;;;;5060054;28;20041;-71
2023/06/19 03:06:25;;;;;;;1999.90;999.90;;;21.10;71.50;;;;;;5052318;28;20025;-71
2023/06/19 03:08:53;;;;;;;1999.90;999.90;;;21.10;71.80;;;;;;5061161;28;20029;-73
2023/06/19 03:11:20;;;;;;;1999.90;999.90;;;21.10;72.40;;;;;;5055066;28;20036;-72
2023/06/19 03:13:55;;;;;;;1999.90;999.90;;;20.80;71.90;;;;;;5059615;28;20490;-73
2023/06/19 03:16:22;;;;;;;1999.90;999.90;;;20.50;71.60;;;;;;5054076;28;20025;-70
2023/06/19 03:18:50;;;;;;;1999.90;999.90;;;20.20;72.00;;;;;;5051335;28;20108;-68
2023/06/19 03:21:19;;;;;;;1999.90;999.90;;;20.00;72.30;;;;;;5053332;28;20479;-70
2023/06/19 03:23:46;;;;;;;1999.90;999.90;;;19.80;72.20;;;;;;5059292;28;20120;-70
2023/06/19 03:26:14;;;;;;;1999.90;999.90;;;19.60;72.00;;;;;;5055359;28;20115;-73
2023/06/19 03:28:41;;;;;;;1999.90;999.90;;;19.40;72.70;;;;;;5058371;28;20088;-70
2023/06/19 03:31:09;;;;;;;1999.90;999.90;;;19.10;71.90;;;;;;5048994;28;20055;-70
2023/06/19 03:33:36;;;;;;;1999.90;999.90;;;18.80;72.20;;;;;;5064243;28;20047;-72
2023/06/19 03:36:04;;;;;;;1999.90;999.90;;;18.20;72.90;;;;;;5054388;28;20143;-72
2023/06/19 03:38:31;;;;;;;1999.90;999.90;;;17.90;73.10;;;;;;5059865;28;20373;-72
2023/06/19 03:40:58;;;;;;;1999.90;999.90;;;17.80;73.10;;;;;;5058389;28;20021;-69
2023/06/19 03:43:26;;;;;;;1999.90;999.90;;;17.70;71.20;;;;;;5065223;28;20083;-69
2023/06/19 03:45:53;;;;;;;1999.90;999.90;;;17.70;71.90;;;;;;5053808;28;20021;-70
2023/06/19 03:48:20;;;;;;;1999.90;999.90;;;17.60;69.40;;;;;;5062751;28;20064;-69
2023/06/19 03:50:48;;;;;;;1999.90;999.90;;;17.40;69.80;;;;;;5057201;28;20396;-69
2023/06/19 03:53:15;;;;;;;1999.90;999.90;;;17.30;69.10;;;;;;5063762;28;20246;-69
2023/06/19 03:55:44;;;;;;;1999.90;999.90;;;17.20;69.80;;;;;;5060608;28;20479;-69
2023/06/19 03:58:11;;;;;;;1999.90;999.90;;;17.10;70.60;;;;;;5051672;28;20075;-69
2023/06/19 04:00:39;;;;;;;1999.90;999.90;;;16.90;70.30;;;;;;5056100;28;20020;-69
2023/06/19 04:03:09;;;;;;;1999.90;999.90;;;16.80;71.30;;;;;;5060593;28;20056;-69
2023/06/19 04:05:36;;;;;;;1999.90;999.90;;;16.80;71.20;;;;;;5055003;28;20024;-71
2023/06/19 04:08:04;;;;;;;1999.90;999.90;;;16.70;71.50;;;;;;5055943;28;20480;-70
2023/06/19 04:10:31;;;;;;;1999.90;999.90;;;16.80;71.20;;;;;;5061211;28;20025;-69
2023/06/19 04:12:58;;;;;;;1999.90;999.90;;;16.70;71.80;;;;;;5055182;28;20037;-72
2023/06/19 04:15:26;;;;;;;1999.90;999.90;;;16.70;71.60;;;;;;5063244;28;20499;-69
2023/06/19 04:17:53;;;;;;;1999.90;999.90;;;16.70;72.00;;;;;;5053076;28;20060;-69
2023/06/19 04:20:21;;;;;;;1999.90;999.90;;;16.70;72.80;;;;;;5053312;28;20029;-70
2023/06/19 04:22:48;;;;;;;1999.90;999.90;;;16.60;72.30;;;;;;5053525;28;20135;-68
2023/06/19 04:25:16;;;;;;;1999.90;999.90;;;16.50;71.90;;;;;;5062027;28;20048;-69
2023/06/19 04:27:44;;;;;;;1999.90;999.90;;;16.50;72.60;;;;;;5051229;28;20032;-70
2023/06/19 04:30:12;;;;;;;1999.90;999.90;;;16.40;72.70;;;;;;5045492;28;20027;-70
2023/06/19 04:32:40;;;;;;;1999.90;999.90;;;16.30;72.70;;;;;;5049644;28;20483;-69
2023/06/19 04:35:08;;;;;;;1999.90;999.90;;;16.30;72.60;;;;;;5054204;28;20025;-72
2023/06/19 04:37:36;;;;;;;1999.90;999.90;;;16.30;73.20;;;;;;5051884;28;20108;-73
2023/06/19 04:40:04;;;;;;;1999.90;999.90;;;16.30;73.10;;;;;;5052742;28;20498;-68
2023/06/19 04:42:32;;;;;;;1999.90;999.90;;;16.30;73.60;;;;;;5051902;28;20500;-73
2023/06/19 04:45:00;;;;;;;1999.90;999.90;;;16.20;74.00;;;;;;5050841;28;20040;-69
2023/06/19 04:47:27;;;;;;;1999.90;999.90;;;16.20;74.30;;;;;;5043563;28;20021;-70
2023/06/19 04:49:54;;;;;;;1999.90;999.90;;;16.20;74.00;;;;;;5059446;28;20047;-71
2023/06/19 04:52:23;;;;;;;1999.90;999.90;;;16.20;73.90;;;;;;5062903;28;20054;-69
2023/06/19 04:54:50;;;;;;;1999.90;999.90;;;16.10;74.30;;;;;;5053508;28;20480;-69
2023/06/19 04:57:17;;;;;;;1999.90;999.90;;;16.20;74.00;;;;;;5046837;28;20033;-70
2023/06/19 04:59:45;;;;;;;1999.90;999.90;;;16.20;74.30;;;;;;5056115;28;20029;-71
2023/06/19 05:02:16;;;;;;;1999.90;999.90;;;16.20;74.40;;;;;;5051852;28;20036;-71
2023/06/19 05:04:44;;;;;;;1999.90;999.90;;;16.10;74.50;;;;;;5051626;28;20107;-71
2023/06/19 05:07:14;;;;;;;1999.90;999.90;;;16.10;74.90;;;;;;5056016;28;20056;-71
2023/06/19 05:09:41;;;;;;;1999.90;999.90;;;16.10;75.40;;;;;;5059115;28;20036;-74
2023/06/19 05:12:09;;;;;;;1999.90;999.90;;;16.00;75.10;;;;;;5053460;28;20029;-70
2023/06/19 05:14:36;;;;;;;1999.90;999.90;;;16.00;75.40;;;;;;5058959;28;20112;-71
2023/06/19 05:17:03;;;;;;;1999.90;999.90;;;16.00;74.70;;;;;;5052450;28;20033;-71
2023/06/19 05:19:31;;;;;;;1999.90;999.90;;;16.00;75.90;;;;;;5057428;28;20025;-70
2023/06/19 05:21:58;;;;;;;1999.90;999.90;;;16.00;75.10;;;;;;5057365;28;20135;-72
2023/06/19 05:24:26;;;;;;;1999.90;999.90;;;15.90;75.40;;;;;;5058164;28;20028;-72
2023/06/19 05:26:53;;;;;;;1999.90;999.90;;;15.90;75.40;;;;;;5054593;28;20032;-70
2023/06/19 05:29:20;;;;;;;1999.90;999.90;;;15.90;75.30;;;;;;5061758;28;20026;-71
2023/06/19 05:31:48;;;;;;;1999.90;999.90;;;15.90;76.00;;;;;;5054398;28;20029;-70
2023/06/19 05:34:15;;;;;;;1999.90;999.90;;;15.90;75.70;;;;;;5054003;28;20111;-71
2023/06/19 05:36:46;;;;;;;1999.90;999.90;;;15.90;76.10;;;;;;5053390;28;20565;-69
2023/06/19 05:39:14;;;;;;;1999.90;999.90;;;15.90;76.70;;;;;;5059127;28;20543;-73
2023/06/19 05:41:43;;;;;;;1999.90;999.90;;;15.90;76.50;;;;;;5050780;28;20024;-70
2023/06/19 05:44:14;;;;;;;1999.90;999.90;;;15.90;76.90;;;;;;5055115;28;20038;-71
2023/06/19 05:46:41;;;;;;;1999.90;999.90;;;15.80;77.40;;;;;;5060457;28;20038;-72
2023/06/19 05:49:09;;;;;;;1999.90;999.90;;;15.80;77.60;;;;;;5053318;28;20021;-72
2023/06/19 05:51:36;;;;;;;1999.90;999.90;;;15.80;77.60;;;;;;5052423;28;20124;-71
2023/06/19 05:54:04;;;;;;;1999.90;999.90;;;15.80;78.40;;;;;;5046387;28;20029;-71
2023/06/19 05:56:32;;;;;;;1999.90;999.90;;;15.80;78.30;;;;;;5048510;28;20029;-72
2023/06/19 05:59:01;;;;;;;1999.90;999.90;;;15.70;78.40;;;;;;5056301;28;20074;-72
2023/06/19 06:01:29;;;;;;;1999.90;999.90;;;15.70;78.90;;;;;;5048907;28;20017;-75
2023/06/19 06:03:57;;;;;;;1999.90;999.90;;;15.80;78.80;;;;;;5050229;28;20041;-73
2023/06/19 06:06:25;;;;;;;1999.90;999.90;;;15.80;78.40;;;;;;5059925;28;20025;-73
2023/06/19 06:08:54;;;;;;;1999.90;999.90;;;15.80;78.70;;;;;;5060059;28;20111;-72
2023/06/19 06:11:23;;;;;;;1999.90;999.90;;;15.80;78.70;;;;;;5053584;28;20032;-72
2023/06/19 06:13:50;;;;;;;1999.90;999.90;;;15.80;78.80;;;;;;5050607;28;20080;-72
2023/06/19 06:16:18;;;;;;;1999.90;999.90;;;15.80;79.00;;;;;;5047424;28;20593;-72
2023/06/19 06:18:46;;;;;;;1999.90;999.90;;;15.80;79.10;;;;;;5053460;28;20493;-72
2023/06/19 06:21:14;;;;;;;1999.90;999.90;;;15.80;79.70;;;;;;5041555;28;20380;-71
2023/06/19 06:23:44;;;;;;;1999.90;999.90;;;15.70;79.70;;;;;;5051228;28;20423;-73
2023/06/19 06:26:12;;;;;;;1999.90;999.90;;;15.70;79.90;;;;;;5049570;28;20309;-73
2023/06/19 06:28:39;;;;;;;1999.90;999.90;;;15.60;79.90;;;;;;5056299;28;20031;-72
2023/06/19 06:31:07;;;;;;;1999.90;999.90;;;15.50;80.40;;;;;;5048065;28;20040;-71
2023/06/19 06:33:34;;;;;;;1999.90;999.90;;;15.40;80.60;;;;;;5058733;28;20127;-72
2023/06/19 06:36:02;;;;;;;1999.90;999.90;;;15.30;81.10;;;;;;5049669;28;20021;-70
2023/06/19 06:38:29;;;;;;;1999.90;999.90;;;15.20;81.40;;;;;;5060063;28;20047;-72
2023/06/19 06:40:56;;;;;;;1999.90;999.90;;;15.00;81.60;;;;;;5054665;28;20021;-71
2023/06/19 06:43:24;;;;;;;1999.90;999.90;;;14.90;82.10;;;;;;5062142;28;20029;-71
2023/06/19 06:45:51;;;;;;;1999.90;999.90;;;14.80;82.50;;;;;;5056348;28;20104;-72
2023/06/19 06:48:19;;;;;;;1999.90;999.90;;;14.70;82.60;;;;;;5057906;28;20436;-71
2023/06/19 06:50:46;;;;;;;1999.90;999.90;;;14.70;82.70;;;;;;5055269;28;20371;-72
2023/06/19 06:53:13;;;;;;;1999.90;999.90;;;14.60;82.90;;;;;;5051494;28;20107;-73
2023/06/19 06:55:41;;;;;;;1999.90;999.90;;;14.50;82.70;;;;;;5050272;28;20025;-72
2023/06/19 06:58:08;;;;;;;1999.90;999.90;;;14.40;82.60;;;;;;5058249;28;20036;-72
2023/06/19 07:00:36;;;;;;;1999.90;999.90;;;14.40;82.80;;;;;;5052289;28;20034;-72
2023/06/19 07:03:04;;;;;;;1999.90;999.90;;;14.30;83.00;;;;;;5058951;28;20076;-72
2023/06/19 07:05:31;;;;;;;1999.90;999.90;;;14.30;83.10;;;;;;5052504;28;20029;-72
2023/06/19 07:07:58;;;;;;;1999.90;999.90;;;14.30;83.10;;;;;;5061520;28;20036;-72
2023/06/19 07:10:26;;;;;;;1999.90;999.90;;;14.30;83.30;;;;;;5055702;28;20029;-74
2023/06/19 07:12:53;;;;;;;1999.90;999.90;;;14.20;83.50;;;;;;5058706;28;20507;-71
2023/06/19 07:15:20;;;;;;;1999.90;999.90;;;14.00;83.80;;;;;;5047625;28;20036;-72
2023/06/19 07:17:48;;;;;;;1999.90;999.90;;;13.90;84.10;;;;;;5057211;28;20032;-72
2023/06/19 07:20:16;;;;;;;1999.90;999.90;;;13.80;84.50;;;;;;5055552;28;20024;-71
2023/06/19 07:22:45;;;;;;;1999.90;999.90;;;13.80;84.10;;;;;;5057118;28;20025;-70
2023/06/19 07:25:14;;;;;;;1999.90;999.90;;;13.80;84.10;;;;;;5059331;28;20483;-71
2023/06/19 07:27:42;;;;;;;1999.90;999.90;;;13.80;84.30;;;;;;5056303;28;20037;-72
2023/06/19 07:30:10;;;;;;;1999.90;999.90;;;13.70;84.00;;;;;;5052765;28;20025;-70
2023/06/19 07:32:38;;;;;;;1999.90;999.90;;;13.70;83.00;;;;;;5051621;28;20029;-71
2023/06/19 07:35:07;;;;;;;1999.90;999.90;;;13.70;82.70;;;;;;5052937;28;20036;-73
2023/06/19 07:37:34;;;;;;;1999.90;999.90;;;13.70;82.60;;;;;;5054871;28;20465;-70
2023/06/19 07:40:02;;;;;;;1999.90;999.90;;;13.70;82.20;;;;;;5052964;28;20037;-69
2023/06/19 07:42:29;;;;;;;1999.90;999.90;;;13.60;81.90;;;;;;5067732;28;20588;-70
2023/06/19 07:44:57;;;;;;;1999.90;999.90;;;13.60;81.60;;;;;;5047423;28;20029;-70
2023/06/19 07:47:27;;;;;;;1999.90;999.90;;;13.60;81.20;;;;;;5056988;28;20032;-70
2023/06/19 07:49:54;;;;;;;1999.90;999.90;;;13.60;80.90;;;;;;5054561;28;20113;-70
2023/06/19 07:52:22;;;;;;;1999.90;999.90;;;13.70;80.80;;;;;;5053389;28;20037;-70
2023/06/19 07:54:55;;;;;;;1999.90;999.90;;;13.60;80.60;;;;;;5049228;28;20037;-71
2023/06/19 07:57:24;;;;;;;1999.90;999.90;;;13.60;81.30;;;;;;5047919;28;20025;-69
2023/06/19 07:59:53;;;;;;;1999.90;999.90;;;13.50;80.70;;;;;;5059865;28;20024;-71
2023/06/19 08:02:21;;;;;;;1999.90;999.90;;;13.50;81.00;;;;;;5052053;28;20056;-69
2023/06/19 08:04:48;;;;;;;1999.90;999.90;;;13.40;81.30;;;;;;5056069;28;20423;-71
2023/06/19 08:07:15;;;;;;;1999.90;999.90;;;13.30;81.60;;;;;;5049713;28;20115;-72
2023/06/19 08:09:43;;;;;;;1999.90;999.90;;;13.20;81.70;;;;;;5048256;28;20028;-69
2023/06/19 08:12:10;;;;;;;1999.90;999.90;;;13.10;81.90;;;;;;5053091;28;20079;-70
2023/06/19 08:14:38;;;;;;;1999.90;999.90;;;13.00;82.10;;;;;;5057593;28;20396;-70
2023/06/19 08:17:06;;;;;;;1999.90;999.90;;;13.10;81.80;;;;;;5052959;28;20421;-70
2023/06/19 08:19:33;;;;;;;1999.90;999.90;;;13.00;82.70;;;;;;5052412;28;20162;-69
2023/06/19 08:22:00;;;;;;;1999.90;999.90;;;12.90;82.80;;;;;;5053123;28;20032;-71
2023/06/19 08:24:28;;;;;;;1999.90;999.90;;;12.70;83.20;;;;;;5062172;28;20079;-71
2023/06/19 08:26:56;;;;;;;1999.90;999.90;;;12.60;83.40;;;;;;5056991;28;20091;-73
2023/06/19 08:29:24;;;;;;;1999.90;999.90;;;12.40;83.80;;;;;;5059574;28;20024;-72
2023/06/19 08:31:51;;;;;;;1999.90;999.90;;;12.30;84.40;;;;;;5060793;28;20074;-71
2023/06/19 08:34:18;;;;;;;1999.90;999.90;;;12.10;85.10;;;;;;5060237;28;20434;-71
2023/06/19 08:36:49;;;;;;;1999.90;999.90;;;11.90;85.20;;;;;;5057292;28;20021;-71
2023/06/19 08:39:16;;;;;;;1999.90;999.90;;;11.80;86.00;;;;;;5061055;28;20033;-70
2023/06/19 08:41:44;;;;;;;1999.90;999.90;;;11.70;86.50;;;;;;5052439;28;20550;-70
2023/06/19 08:44:11;;;;;;;1999.90;999.90;;;11.60;86.60;;;;;;5060960;28;20063;-70
2023/06/19 08:46:41;;;;;;;1999.90;999.90;;;11.60;86.80;;;;;;5064051;28;20510;-70
2023/06/19 08:49:12;;;;;;;1999.90;999.90;;;11.60;87.00;;;;;;5060863;28;20139;-70
2023/06/19 08:51:40;;;;;;;1999.90;999.90;;;11.70;86.60;;;;;;5056648;28;20111;-71
2023/06/19 08:54:08;;;;;;;1999.90;999.90;;;11.70;86.60;;;;;;5059070;28;20072;-71
2023/06/19 08:56:37;;;;;;;1999.90;999.90;;;11.80;86.30;;;;;;5058019;28;20103;-70
2023/06/19 08:59:16;;;;;;;1999.90;999.90;;;11.80;86.60;;;;;;5056317;28;20029;-73
2023/06/19 09:01:54;;;;;;;1999.90;999.90;;;11.80;86.60;;;;;;5055407;28;20542;-71
2023/06/19 09:04:30;;;;;;;1999.90;999.90;;;11.70;86.80;;;;;;5056208;28;20102;-71
2023/06/19 09:07:03;;;;;;;1999.90;999.90;;;11.50;87.60;;;;;;5071173;28;20025;-70
2023/06/19 09:09:32;;;;;;;1999.90;999.90;;;11.50;87.20;;;;;;5056145;28;20484;-70
2023/06/19 09:12:13;;;;;;;1999.90;999.90;;;11.70;86.70;;;;;;5056252;28;20032;-72
2023/06/19 09:14:44;;;;;;;1999.90;999.90;;;11.90;86.10;;;;;;5056370;28;20515;-70
2023/06/19 09:17:17;;;;;;;1999.90;999.90;;;12.00;85.90;;;;;;5057513;28;20021;-71
2023/06/19 09:19:58;;;;;;;1999.90;999.90;;;12.00;85.80;;;;;;5052761;28;20033;-72
2023/06/19 09:22:26;;;;;;;1999.90;999.90;;;12.00;86.00;;;;;;5055096;28;20119;-71
2023/06/19 09:24:53;;;;;;;1999.90;999.90;;;12.10;85.80;;;;;;5059643;28;20041;-71
2023/06/19 09:27:21;;;;;;;1999.90;999.90;;;12.10;86.00;;;;;;5051169;28;20079;-70
2023/06/19 09:29:50;;;;;;;1999.90;999.90;;;12.30;85.70;;;;;;5052640;28;20040;-71
2023/06/19 09:32:23;;;;;;;1999.90;999.90;;;12.60;85.20;;;;;;5044603;28;20036;-78
2023/06/19 09:34:52;;;;;;;1999.90;999.90;;;12.60;85.10;;;;;;5052014;28;20029;-74
2023/06/19 09:37:30;;;;;;;1999.90;999.90;;;12.60;84.90;;;;;;5048144;28;20437;-72
2023/06/19 09:39:59;;;;;;;1999.90;999.90;;;12.60;85.30;;;;;;5058339;28;20033;-70
2023/06/19 09:42:35;;;;;;;1999.90;999.90;;;12.50;85.50;;;;;;5057254;28;20029;-70
2023/06/19 09:45:07;;;;;;;1999.90;999.90;;;12.40;85.80;;;;;;5063240;28;20052;-72
2023/06/19 09:47:37;;;;;;;1999.90;999.90;;;12.30;86.10;;;;;;5051777;28;20112;-72
2023/06/19 09:50:06;;;;;;;1999.90;999.90;;;12.40;86.30;;;;;;5065191;28;20031;-71
2023/06/19 09:52:34;;;;;;;1999.90;999.90;;;12.50;86.40;;;;;;5055716;28;20029;-71
2023/06/19 09:55:04;;;;;;;1999.90;999.90;;;12.60;86.90;;;;;;5050964;28;20033;-73
2023/06/19 09:57:34;;;;;;;1999.90;999.90;;;12.70;86.80;;;;;;5059955;28;20029;-70
2023/06/19 10:00:12;;;;;;;1999.90;999.90;;;12.90;86.20;;;;;;5050078;28;20043;-74
2023/06/19 10:02:44;;;;;;;1999.90;999.90;;;12.90;86.00;;;;;;5055111;28;20032;-73
2023/06/19 10:05:13;;;;;;;1999.90;999.90;;;13.00;86.00;;;;;;5048033;28;20063;-79
2023/06/19 10:07:43;;;;;;;1999.90;999.90;;;13.00;86.10;;;;;;5055833;28;20036;-74
2023/06/19 10:10:24;;;;;;;1999.90;999.90;;;13.00;86.30;;;;;;5051769;28;20482;-72
2023/06/19 10:12:55;;;;;;;1999.90;999.90;;;13.00;86.70;;;;;;5056773;28;20044;-76
2023/06/19 10:15:29;;;;;;;1999.90;999.90;;;13.10;86.80;;;;;;5054450;28;20033;-70
2023/06/19 10:18:07;;;;;;;1999.90;999.90;;;13.10;86.90;;;;;;5061166;28;20029;-75
2023/06/19 10:20:39;;;;;;;1999.90;999.90;;;13.20;87.20;;;;;;5056780;28;22129;-70
2023/06/19 10:23:09;;;;;;;1999.90;999.90;;;13.20;87.60;;;;;;5063239;28;20547;-70
2023/06/19 10:25:41;;;;;;;1999.90;999.90;;;13.30;87.90;;;;;;5045992;28;20060;-72
2023/06/19 10:28:21;;;;;;;1999.90;999.90;;;13.20;88.00;;;;;;5055250;28;20021;-71
2023/06/19 10:30:56;;;;;;;1999.90;999.90;;;13.20;88.30;;;;;;5056888;28;20407;-72
2023/06/19 10:33:32;;;;;;;1999.90;999.90;;;13.10;89.00;;;;;;5057955;28;20456;-72
2023/06/19 10:36:02;;;;;;;1999.90;999.90;;;13.10;89.60;;;;;;5053993;28;20074;-71
2023/06/19 10:38:29;;;;;;;1999.90;999.90;;;13.10;90.00;;;;;;5051948;28;20420;-73
2023/06/19 10:40:58;;;;;;;1999.90;999.90;;;13.10;90.10;;;;;;5044656;28;20123;-72
2023/06/19 10:43:31;;;;;;;1999.90;999.90;;;13.10;90.40;;;;;;5053339;28;20028;-71
2023/06/19 10:46:04;;;;;;;1999.90;999.90;;;12.90;90.50;;;;;;5042116;28;20037;-73
2023/06/19 10:48:31;;;;;;;1999.90;999.90;;;12.90;90.60;;;;;;5041843;28;20036;-71
2023/06/19 10:50:59;;;;;;;1999.90;999.90;;;12.90;90.70;;;;;;5046075;28;20020;-75
2023/06/19 10:53:33;;;;;;;1999.90;999.90;;;12.90;90.80;;;;;;5046908;28;20032;-71
2023/06/19 10:56:03;;;;;;;1999.90;999.90;;;12.90;90.80;;;;;;5050319;28;20033;-72
2023/06/19 10:58:30;;;;;;;1999.90;999.90;;;12.80;91.10;;;;;;5050046;28;21821;-74
2023/06/19 11:00:58;;;;;;;1999.90;999.90;;;12.70;91.20;;;;;;5063384;28;20028;-72
2023/06/19 11:03:28;;;;;;;1999.90;999.90;;;12.70;91.70;;;;;;5067088;28;20444;-76
2023/06/19 11:05:56;;;;;;;1999.90;999.90;;;12.70;91.40;;;;;;5055204;28;20032;-70
2023/06/19 11:08:24;;;;;;;1999.90;999.90;;;12.70;91.50;;;;;;5051008;28;20419;-71
2023/06/19 11:10:52;;;;;;;1999.90;999.90;;;12.70;91.50;;;;;;5047649;28;20107;-73
2023/06/19 11:13:20;;;;;;;1999.90;999.90;;;12.60;91.70;;;;;;5049017;28;20474;-70
2023/06/19 11:15:51;;;;;;;1999.90;999.90;;;12.60;92.00;;;;;;5055787;28;20026;-73
2023/06/19 11:18:19;;;;;;;1999.90;999.90;;;12.60;91.60;;;;;;5050731;28;20044;-72
2023/06/19 11:20:50;;;;;;;1999.90;999.90;;;12.60;91.80;;;;;;5043001;28;20083;-70
2023/06/19 11:23:25;;;;;;;1999.90;999.90;;;12.60;91.70;;;;;;5056274;28;20159;-69
2023/06/19 11:26:06;;;;;;;1999.90;999.90;;;12.60;91.80;;;;;;5055766;28;20525;-72
2023/06/19 11:28:33;;;;;;;1999.90;999.90;;;12.60;91.90;;;;;;5050570;28;20068;-70
2023/06/19 11:31:03;;;;;;;1999.90;999.90;;;12.40;92.00;;;;;;5062869;28;20060;-71
2023/06/19 11:33:33;;;;;;;1999.90;999.90;;;12.40;92.10;;;;;;5052984;28;20504;-69
2023/06/19 11:36:04;;;;;;;1999.90;999.90;;;12.30;92.00;;;;;;5054063;28;20435;-71
2023/06/19 11:38:33;;;;;;;1999.90;999.90;;;12.30;92.00;;;;;;5057097;28;20036;-71
2023/06/19 11:41:00;;;;;;;1999.90;999.90;;;12.20;92.10;;;;;;5051432;28;20033;-73
2023/06/19 11:43:29;;;;;;;1999.90;999.90;;;12.10;92.20;;;;;;5059830;28;20028;-71
2023/06/19 11:46:10;;;;;;;1999.90;999.90;;;12.00;92.10;;;;;;5047325;28;20029;-72
2023/06/19 11:48:41;;;;;;;1999.90;999.90;;;11.90;92.30;;;;;;5052539;28;20032;-71
2023/06/19 11:51:09;;;;;;;1999.90;999.90;;;11.90;92.20;;;;;;5049216;28;20087;-70
2023/06/19 11:53:36;;;;;;;1999.90;999.90;;;11.80;92.10;;;;;;5069886;28;20036;-71
2023/06/19 11:56:04;;;;;;;1999.90;999.90;;;11.80;92.10;;;;;;5058693;28;20021;-70
2023/06/19 11:58:32;;;;;;;1999.90;999.90;;;11.80;92.10;;;;;;5056323;28;20029;-70
2023/06/19 12:00:59;;;;;;;1999.90;999.90;;;11.70;92.10;;;;;;5062656;28;20029;-70
2023/06/19 12:03:27;;;;;;;1999.90;999.90;;;11.60;92.30;;;;;;5059745;28;20049;-75
2023/06/19 12:05:54;;;;;;;1999.90;999.90;;;11.50;92.30;;;;;;5063647;28;20064;-70